Time;durP1;ratioP1;P1;durP2;ratioP2;P2;SDS_P1;SDS_P2;PMS_P1;PMS_P2;Temp;Humidity;BMP_temperature;BMP_pressure;BME280_temperature;BME280_humidity;BME280_pressure;Samples;Min_cycle;Max_cycle;Signal;HPM_P1;HPM_P2
2021/03/10 00:03:03;;;;;;;51.92;29.92;;;-1.20;98.60;;;;;;6000303;24;20385;-96
2021/03/10 00:06:32;;;;;;;;;;;;;;;;;;;;;
2021/03/10 00:09:31;;;;;;;48.03;28.80;;;-1.10;97.20;;;;;;5995174;24;20405;-96
2021/03/10 00:13:06;;;;;;;45.65;26.83;;;-1.20;96.80;;;;;;5955348;24;20486;-96
2021/03/10 00:16:07;;;;;;;47.40;29.63;;;-1.20;96.50;;;;;;5950578;24;20399;-96
2021/03/10 00:18:50;;;;;;;48.42;29.95;;;-1.30;96.90;;;;;;5947299;24;20428;-96
2021/03/10 00:21:28;;;;;;;43.08;25.67;;;-1.30;97.30;;;;;;5925218;24;20470;-96
2021/03/10 00:24:14;;;;;;;47.20;28.67;;;-1.40;96.10;;;;;;5934343;24;20412;-96
2021/03/10 00:27:46;;;;;;;47.47;27.75;;;-1.30;96.60;;;;;;5958099;24;20408;-96
2021/03/10 00:30:15;;;;;;;48.08;26.15;;;-1.40;96.90;;;;;;5974336;23;20389;-96
2021/03/10 00:33:47;;;;;;;;;;;;;;;;;;;;;
2021/03/10 00:37:20;;;;;;;;;;;;;;;;;;;;;
2021/03/10 00:41:20;;;;;;;;;;;;;;;;;;;;;
2021/03/10 00:44:28;;;;;;;45.60;26.48;;;-1.30;96.50;;;;;;5972472;24;20411;-96
2021/03/10 00:47:07;;;;;;;41.60;24.58;;;-1.50;96.00;;;;;;5997544;24;20459;-96
2021/03/10 00:50:01;;;;;;;37.45;22.73;;;-1.50;95.70;;;;;;6016729;23;20392;-96
2021/03/10 00:52:52;;;;;;;42.13;24.90;;;-1.50;94.60;;;;;;6054174;23;20394;-96
2021/03/10 00:55:35;;;;;;;41.17;23.70;;;-1.60;95.00;;;;;;6088430;23;20390;-96
2021/03/10 00:58:16;;;;;;;38.97;22.33;;;-1.50;95.20;;;;;;6088734;23;20459;-96
2021/03/10 01:03:15;;;;;;;41.43;23.93;;;-1.70;94.80;;;;;;6259325;22;20422;-96
2021/03/10 01:06:11;;;;;;;39.00;22.88;;;-1.70;95.10;;;;;;6267584;22;20372;-96
2021/03/10 01:08:56;;;;;;;39.58;24.15;;;-1.70;95.40;;;;;;6267559;22;20376;-96
2021/03/10 01:11:29;;;;;;;39.80;22.42;;;-1.60;95.20;;;;;;6264507;22;20395;-96
2021/03/10 01:13:57;;;;;;;36.38;20.33;;;-1.70;94.10;;;;;;6235590;22;20411;-96
2021/03/10 01:16:24;;;;;;;35.80;20.83;;;-1.70;93.10;;;;;;6260250;22;20391;-96
2021/03/10 01:18:52;;;;;;;34.25;20.17;;;-1.70;93.20;;;;;;6259253;22;20414;-96
2021/03/10 01:21:29;;;;;;;37.97;20.23;;;-1.70;93.10;;;;;;6263972;22;20380;-95
2021/03/10 01:24:15;;;;;;;34.72;21.63;;;-1.70;93.00;;;;;;6243008;22;20400;-96
2021/03/10 01:26:55;;;;;;;40.00;22.55;;;-1.80;94.00;;;;;;6264395;22;20383;-96
2021/03/10 01:33:08;;;;;;;38.20;23.10;;;-1.80;94.50;;;;;;6289163;22;20379;-96
2021/03/10 01:35:44;;;;;;;43.08;24.40;;;-1.80;94.70;;;;;;6266454;22;20410;-96
2021/03/10 01:38:25;;;;;;;38.53;23.08;;;-1.80;94.90;;;;;;6272465;22;20365;-96
2021/03/10 01:41:21;;;;;;;40.40;24.50;;;-1.80;94.80;;;;;;6264272;22;20399;-96
2021/03/10 01:44:17;;;;;;;37.42;23.58;;;-1.80;95.20;;;;;;6256034;22;20392;-96
2021/03/10 01:47:04;;;;;;;40.25;24.10;;;-1.90;95.20;;;;;;6288018;22;20384;-96
2021/03/10 01:49:42;;;;;;;37.67;22.20;;;-1.80;95.20;;;;;;6262312;22;20454;-96
2021/03/10 01:52:19;;;;;;;41.88;22.42;;;-1.80;94.80;;;;;;6289537;22;20384;-96
2021/03/10 01:54:59;;;;;;;37.75;23.48;;;-1.80;94.80;;;;;;6261612;22;20685;-96
2021/03/10 01:57:34;;;;;;;43.22;23.98;;;-1.90;95.00;;;;;;6259684;22;20384;-96
2021/03/10 02:00:14;;;;;;;41.13;23.77;;;-1.90;94.90;;;;;;6262269;22;20407;-96
2021/03/10 02:02:53;;;;;;;39.03;21.97;;;-1.80;94.60;;;;;;6261962;22;20438;-96
2021/03/10 02:05:23;;;;;;;40.72;24.15;;;-1.80;94.60;;;;;;6260614;22;20438;-96
2021/03/10 02:08:21;;;;;;;40.75;23.58;;;-1.90;94.90;;;;;;6262609;22;20384;-96
2021/03/10 02:11:25;;;;;;;47.67;23.42;;;-1.90;95.10;;;;;;6264441;22;20821;-95
2021/03/10 02:14:23;;;;;;;37.35;22.15;;;-1.90;94.30;;;;;;6264044;22;20388;-96
2021/03/10 02:17:01;;;;;;;42.53;23.35;;;-1.90;94.40;;;;;;6259865;22;20404;-96
2021/03/10 02:19:52;;;;;;;41.97;23.55;;;-1.90;95.00;;;;;;6261304;22;20384;-95
2021/03/10 02:22:40;;;;;;;42.70;24.00;;;-2.00;95.30;;;;;;6278614;22;20399;-96
2021/03/10 02:25:23;;;;;;;42.55;25.83;;;-2.10;95.50;;;;;;6271619;22;20389;-96
2021/03/10 02:28:04;;;;;;;42.45;25.27;;;-2.10;96.10;;;;;;6259286;22;20869;-96
2021/03/10 02:30:49;;;;;;;44.05;25.50;;;-2.10;95.90;;;;;;6258838;22;20423;-96
2021/03/10 02:33:57;;;;;;;40.37;25.63;;;-2.10;96.30;;;;;;6258607;22;20392;-96
2021/03/10 02:36:55;;;;;;;49.05;28.17;;;-2.00;96.20;;;;;;6260998;22;20697;-96
2021/03/10 02:39:59;;;;;;;42.90;24.47;;;-2.10;96.80;;;;;;6268688;22;20392;-96
2021/03/10 02:42:29;;;;;;;41.25;23.98;;;-2.10;96.20;;;;;;6268735;22;20372;-95
2021/03/10 02:45:05;;;;;;;39.03;23.93;;;-2.00;95.50;;;;;;6269580;22;20441;-96
2021/03/10 02:47:33;;;;;;;42.03;23.92;;;-2.10;95.40;;;;;;6257032;22;20380;-95
2021/03/10 02:50:01;;;;;;;44.95;24.90;;;-2.10;95.10;;;;;;6251897;22;20515;-95
2021/03/10 02:52:30;;;;;;;42.20;25.15;;;-2.10;95.70;;;;;;6253969;22;20391;-95
2021/03/10 02:54:57;;;;;;;43.92;25.67;;;-2.10;95.50;;;;;;6255988;22;20416;-96
2021/03/10 02:57:25;;;;;;;40.83;24.70;;;-2.00;95.90;;;;;;6256666;22;20480;-96
2021/03/10 02:59:54;;;;;;;46.50;24.97;;;-2.10;95.80;;;;;;6261604;22;20395;-96
2021/03/10 03:02:39;;;;;;;41.65;24.77;;;-2.00;95.70;;;;;;6255970;22;20414;-96
2021/03/10 03:05:23;;;;;;;45.33;25.90;;;-2.10;95.80;;;;;;6243468;22;20467;-96
2021/03/10 03:07:50;;;;;;;49.00;26.52;;;-2.10;95.50;;;;;;6257248;22;20412;-96
2021/03/10 03:10:28;;;;;;;44.88;26.83;;;-2.00;95.80;;;;;;6256455;22;20412;-96
2021/03/10 03:13:13;;;;;;;46.88;27.05;;;-2.10;96.20;;;;;;6257388;22;20414;-96
2021/03/10 03:15:46;;;;;;;48.93;27.57;;;-2.10;96.10;;;;;;6255856;22;20380;-96
2021/03/10 03:18:19;;;;;;;46.63;27.92;;;-2.10;96.30;;;;;;6259166;22;20861;-96
2021/03/10 03:20:56;;;;;;;47.70;27.88;;;-2.20;96.50;;;;;;6255530;22;20446;-96
2021/03/10 03:23:30;;;;;;;48.58;27.73;;;-2.10;96.80;;;;;;6254997;22;20479;-96
2021/03/10 03:26:08;;;;;;;40.95;25.42;;;-1.90;96.60;;;;;;6260091;22;20384;-96
2021/03/10 03:28:37;;;;;;;43.38;25.17;;;-1.90;95.20;;;;;;6266890;22;20426;-96
2021/03/10 03:31:05;;;;;;;48.92;28.83;;;-1.90;94.90;;;;;;6282810;22;20690;-96
2021/03/10 03:33:36;;;;;;;49.47;29.23;;;-1.90;95.10;;;;;;6256482;22;20388;-96
2021/03/10 03:36:14;;;;;;;50.60;30.00;;;-1.60;95.00;;;;;;6254076;22;20419;-96
2021/03/10 03:38:48;;;;;;;47.78;30.48;;;-1.80;94.60;;;;;;6234280;22;20395;-96
2021/03/10 03:41:20;;;;;;;41.97;27.27;;;-1.80;94.80;;;;;;6256988;22;20388;-95
2021/03/10 03:43:47;;;;;;;42.92;25.45;;;-1.80;94.80;;;;;;6254890;22;20400;-96
2021/03/10 03:46:19;;;;;;;41.53;25.65;;;-1.80;94.50;;;;;;6254923;22;20875;-96
2021/03/10 03:48:53;;;;;;;42.35;25.42;;;-1.80;94.70;;;;;;6253920;22;20448;-96
2021/03/10 03:51:38;;;;;;;43.63;26.63;;;-1.90;95.00;;;;;;6252634;22;20384;-95
2021/03/10 03:54:06;;;;;;;44.53;26.53;;;-2.00;95.60;;;;;;6253236;22;20388;-96
2021/03/10 03:56:33;;;;;;;52.08;29.95;;;-2.00;95.20;;;;;;6255197;22;20388;-96
2021/03/10 03:58:59;;;;;;;50.58;30.58;;;-2.10;96.20;;;;;;6255592;22;20491;-96
2021/03/10 04:01:26;;;;;;;56.05;32.58;;;-1.90;96.90;;;;;;6254844;22;20469;-96
2021/03/10 04:03:53;;;;;;;49.28;30.55;;;-1.90;97.40;;;;;;6253839;22;20754;-94
2021/03/10 04:06:20;;;;;;;53.80;32.40;;;-1.90;97.30;;;;;;6252407;22;20384;-96
2021/03/10 04:12:05;;;;;;;57.47;32.88;;;-2.10;97.10;;;;;;6281553;22;20371;-96
2021/03/10 04:14:31;;;;;;;57.00;34.92;;;-2.00;97.60;;;;;;6273831;22;20435;-96
2021/03/10 04:16:58;;;;;;;60.67;36.58;;;-1.90;97.60;;;;;;6276629;22;20372;-96
2021/03/10 04:19:26;;;;;;;57.05;34.35;;;-1.80;97.80;;;;;;6252788;22;20384;-95
2021/03/10 04:21:52;;;;;;;59.33;34.88;;;-1.80;98.00;;;;;;6250638;22;20467;-96
2021/03/10 04:24:20;;;;;;;59.45;35.47;;;-1.80;98.30;;;;;;6250875;22;20518;-96
2021/03/10 04:26:47;;;;;;;59.85;35.97;;;-1.90;98.80;;;;;;6251059;22;20381;-96
2021/03/10 04:29:14;;;;;;;64.68;38.10;;;-1.80;98.80;;;;;;6250192;22;20395;-96
2021/03/10 04:31:40;;;;;;;64.85;38.35;;;-1.80;98.50;;;;;;6251120;22;20404;-96
2021/03/10 04:34:09;;;;;;;63.23;36.80;;;-1.70;98.70;;;;;;6250694;22;20441;-96
2021/03/10 04:36:39;;;;;;;66.32;38.03;;;-1.70;98.70;;;;;;6250819;22;20395;-96
2021/03/10 04:39:15;;;;;;;62.20;36.67;;;-1.80;99.10;;;;;;6264278;22;20877;-96
2021/03/10 04:41:53;;;;;;;68.43;37.88;;;-1.80;99.10;;;;;;6290499;22;20447;-95
2021/03/10 04:44:25;;;;;;;66.35;38.45;;;-1.80;99.00;;;;;;6244817;22;20495;-96
2021/03/10 04:47:03;;;;;;;62.72;36.28;;;-1.60;99.00;;;;;;6293532;22;20399;-95
2021/03/10 04:49:33;;;;;;;61.53;36.47;;;-1.70;98.80;;;;;;6265246;22;20416;-96
2021/03/10 04:52:10;;;;;;;62.37;37.63;;;-1.80;99.00;;;;;;6267751;22;20372;-96
2021/03/10 04:54:51;;;;;;;62.63;35.47;;;-1.70;99.10;;;;;;6294438;22;20446;-96
2021/03/10 04:57:40;;;;;;;61.92;35.55;;;-1.80;98.80;;;;;;6291424;22;20379;-96
2021/03/10 05:00:37;;;;;;;63.17;38.10;;;-1.80;99.10;;;;;;6272270;22;20375;-96
2021/03/10 05:03:14;;;;;;;64.35;37.30;;;-1.60;99.40;;;;;;6266865;22;20399;-96
2021/03/10 05:06:08;;;;;;;66.50;39.90;;;-1.50;99.30;;;;;;6261163;23;20449;-96
2021/03/10 05:08:54;;;;;;;66.65;38.55;;;-1.50;99.70;;;;;;6240894;23;20394;-96
2021/03/10 05:11:25;;;;;;;67.07;39.50;;;-1.50;99.60;;;;;;6216348;22;20416;-96
2021/03/10 05:14:18;;;;;;;65.93;38.03;;;-1.60;99.70;;;;;;6271944;22;20876;-96
2021/03/10 05:17:14;;;;;;;74.57;39.27;;;-1.60;99.60;;;;;;6297077;22;20387;-96
2021/03/10 05:19:46;;;;;;;67.40;38.70;;;-1.50;99.20;;;;;;6295648;22;20384;-96
2021/03/10 05:22:41;;;;;;;76.32;43.47;;;-1.70;99.20;;;;;;6294220;22;20379;-96
2021/03/10 05:25:42;;;;;;;69.53;39.42;;;-1.80;99.90;;;;;;6272996;22;20380;-95
2021/03/10 05:28:24;;;;;;;72.00;42.05;;;-1.70;99.90;;;;;;6268065;22;20400;-96
2021/03/10 05:30:51;;;;;;;73.38;42.83;;;-1.70;99.60;;;;;;6261952;22;20388;-96
2021/03/10 05:33:18;;;;;;;80.82;43.85;;;-1.80;99.90;;;;;;6260198;22;20384;-96
2021/03/10 05:35:45;;;;;;;72.93;41.20;;;-1.50;99.90;;;;;;6259057;22;20384;-96
2021/03/10 05:38:11;;;;;;;71.40;40.55;;;-1.50;99.30;;;;;;6258837;22;20407;-96
2021/03/10 05:40:39;;;;;;;66.78;39.08;;;-1.40;99.30;;;;;;6261745;22;20384;-96
2021/03/10 05:43:06;;;;;;;70.47;38.78;;;-1.40;99.10;;;;;;6257505;22;20388;-96
2021/03/10 05:45:33;;;;;;;72.70;40.85;;;-1.30;99.40;;;;;;6256108;22;20845;-96
2021/03/10 05:48:00;;;;;;;76.70;42.28;;;-1.30;99.20;;;;;;6255817;22;20418;-96
2021/03/10 05:50:26;;;;;;;76.85;43.20;;;-1.50;99.60;;;;;;6256255;22;20408;-96
2021/03/10 05:52:55;;;;;;;77.57;43.07;;;-1.30;99.90;;;;;;6255018;22;20388;-96
2021/03/10 05:55:22;;;;;;;80.68;42.47;;;-1.30;99.60;;;;;;6255211;22;20388;-96
2021/03/10 05:57:50;;;;;;;87.78;44.72;;;-1.30;99.60;;;;;;6263333;22;20400;-96
2021/03/10 06:00:30;;;;;;;102.65;46.33;;;-1.30;99.90;;;;;;6269718;22;20468;-96
2021/03/10 06:03:28;;;;;;;95.53;46.33;;;-1.30;99.90;;;;;;6297331;22;20489;-96
2021/03/10 06:13:19;;;;;;;104.72;49.45;;;-1.10;99.90;;;;;;6266273;23;20384;-96
2021/03/10 06:15:58;;;;;;;125.15;52.28;;;-1.20;99.90;;;;;;6217288;23;20425;-96
2021/03/10 06:18:45;;;;;;;127.82;57.08;;;-1.30;99.90;;;;;;6241472;22;20374;-96
2021/03/10 06:21:17;;;;;;;107.30;52.40;;;-1.30;99.90;;;;;;6257634;23;20390;-96
2021/03/10 06:24:33;;;;;;;;;;;;;;;;;;;;;
2021/03/10 06:28:08;;;;;;;158.03;54.77;;;-1.20;99.90;;;;;;6122468;23;20385;-96
2021/03/10 06:31:36;;;;;;;;;;;;;;;;;;;;;
2021/03/10 07:07:32;;;;;;;698.80;63.50;;;-0.70;99.90;;;;;;6216613;22;20390;-96
2021/03/10 09:00:41;;;;;;;1819.07;100.45;;;-0.10;99.90;;;;;;6223786;23;20449;-95
2021/03/10 09:03:32;;;;;;;1426.35;73.20;;;-0.10;99.90;;;;;;6224005;23;20886;-95
2021/03/10 09:06:29;;;;;;;1257.75;72.32;;;0.10;99.90;;;;;;6231684;23;20571;-95
2021/03/10 09:09:35;;;;;;;1560.57;81.38;;;0.30;99.90;;;;;;6177106;23;20457;-96
2021/03/10 12:46:02;;;;;;;;;;;;;;;;;;;;;
2021/03/10 14:03:21;;;;;;;13.45;10.27;;;5.60;76.60;;;;;;6218600;23;20481;-94
2021/03/10 14:06:29;;;;;;;18.10;13.13;;;5.60;75.50;;;;;;6201085;22;20455;-94
2021/03/10 14:17:52;;;;;;;19.83;13.60;;;4.80;80.10;;;;;;6241868;22;20378;-92
2021/03/10 14:51:16;;;;;;;20.20;15.13;;;4.90;83.60;;;;;;6293419;22;20352;-95
2021/03/10 15:15:11;;;;;;;25.65;18.42;;;3.60;91.20;;;;;;6286836;22;20446;-94
2021/03/10 15:18:05;;;;;;;29.45;19.73;;;3.50;90.30;;;;;;6235065;22;20403;-96
2021/03/10 15:20:33;;;;;;;28.60;19.57;;;3.40;91.20;;;;;;6257389;22;20388;-95
2021/03/10 15:23:00;;;;;;;29.08;19.35;;;3.40;91.20;;;;;;6259280;22;20415;-96
2021/03/10 15:25:27;;;;;;;30.13;20.83;;;3.50;92.00;;;;;;6262954;22;20396;-96
2021/03/10 15:27:55;;;;;;;26.73;18.73;;;3.80;91.30;;;;;;6258713;22;20462;-94
2021/03/10 15:30:23;;;;;;;27.15;19.33;;;3.80;91.40;;;;;;6260296;22;20404;-96
2021/03/10 15:32:50;;;;;;;25.10;18.20;;;3.80;92.40;;;;;;6230422;22;20385;-96
2021/03/10 15:35:18;;;;;;;28.13;19.67;;;3.50;91.90;;;;;;6262691;22;20376;-96
2021/03/10 15:37:46;;;;;;;27.63;18.73;;;3.00;93.40;;;;;;6277139;22;20360;-94
2021/03/10 15:40:17;;;;;;;29.10;19.55;;;2.60;94.40;;;;;;6266553;22;20485;-96
2021/03/10 15:42:45;;;;;;;29.50;20.95;;;2.40;94.90;;;;;;6254828;22;20422;-95
2021/03/10 15:45:12;;;;;;;28.20;19.52;;;2.20;96.20;;;;;;6254423;22;20410;-95
2021/03/10 15:47:39;;;;;;;25.00;18.75;;;2.60;96.00;;;;;;6255915;22;20412;-94
2021/03/10 15:50:08;;;;;;;21.77;15.93;;;3.10;95.70;;;;;;6257673;22;20390;-94
2021/03/10 15:52:37;;;;;;;18.73;14.05;;;3.80;94.10;;;;;;6256302;22;20384;-93
2021/03/10 15:55:07;;;;;;;18.00;14.05;;;4.60;90.80;;;;;;6285647;22;20462;-95
2021/03/10 15:57:39;;;;;;;16.73;12.88;;;5.30;90.40;;;;;;6260508;22;20454;-95
2021/03/10 16:00:13;;;;;;;16.17;12.18;;;5.90;85.20;;;;;;6265166;22;20402;-93
2021/03/10 16:02:53;;;;;;;16.40;12.17;;;6.80;81.70;;;;;;6269013;22;20390;-96
2021/03/10 16:05:28;;;;;;;16.02;11.88;;;7.40;79.70;;;;;;6271247;22;20415;-96
2021/03/10 16:08:31;;;;;;;15.32;11.73;;;7.60;74.90;;;;;;6289273;22;20369;-96
2021/03/10 16:11:01;;;;;;;18.50;13.15;;;7.60;74.70;;;;;;6240453;22;20383;-95
2021/03/10 16:13:30;;;;;;;17.85;13.98;;;7.20;75.00;;;;;;6258801;22;20391;-95
2021/03/10 16:15:57;;;;;;;17.83;13.67;;;6.50;78.40;;;;;;6258313;22;20384;-96
2021/03/10 16:18:25;;;;;;;19.15;14.60;;;5.60;82.10;;;;;;6260884;22;20392;-95
2021/03/10 16:20:55;;;;;;;17.50;13.63;;;5.20;87.60;;;;;;6260222;22;20391;-96
2021/03/10 16:23:31;;;;;;;20.38;15.30;;;4.90;83.80;;;;;;6266595;22;20860;-93
2021/03/10 16:25:59;;;;;;;21.38;15.00;;;4.60;89.30;;;;;;6265541;22;20377;-96
2021/03/10 16:28:42;;;;;;;19.67;14.95;;;4.40;90.00;;;;;;6265968;22;20365;-96
2021/03/10 16:31:11;;;;;;;18.65;14.02;;;4.30;90.20;;;;;;6258514;22;20388;-94
2021/03/10 17:08:00;;;;;;;29.27;20.05;;;2.10;95.20;;;;;;6249238;22;20388;-95
2021/03/10 17:24:38;;;;;;;43.90;28.27;;;1.50;97.80;;;;;;6262854;22;20387;-95
2021/03/10 18:36:11;;;;;;;89.50;46.70;;;0.90;99.90;;;;;;6259928;22;20393;-94
2021/03/10 18:38:42;;;;;;;79.93;45.00;;;0.80;99.90;;;;;;6254293;22;20460;-95
2021/03/10 18:41:09;;;;;;;79.45;45.13;;;1.00;99.90;;;;;;6252935;22;20384;-95
2021/03/10 18:43:36;;;;;;;83.18;45.35;;;0.90;99.90;;;;;;6252707;22;20392;-96
2021/03/10 18:46:04;;;;;;;70.85;41.53;;;1.10;99.90;;;;;;6227731;22;20452;-95
2021/03/10 18:48:31;;;;;;;70.22;42.00;;;1.00;99.80;;;;;;6252421;22;20384;-95
2021/03/10 18:51:01;;;;;;;65.75;39.78;;;1.20;99.80;;;;;;6258529;22;20419;-96
2021/03/10 18:53:53;;;;;;;64.72;39.88;;;1.20;99.30;;;;;;6241889;22;20430;-96
2021/03/10 18:56:49;;;;;;;67.95;39.80;;;1.20;99.20;;;;;;6265460;22;20381;-96
2021/03/10 18:59:27;;;;;;;70.10;40.88;;;1.20;99.40;;;;;;6286635;22;20396;-96
2021/03/10 19:02:10;;;;;;;66.95;39.17;;;1.20;99.30;;;;;;6257557;22;20442;-96
2021/03/10 19:04:39;;;;;;;67.32;40.42;;;1.10;99.20;;;;;;6280660;22;20396;-95
2021/03/10 19:07:08;;;;;;;67.10;39.80;;;1.10;99.10;;;;;;6282238;22;20435;-93
2021/03/10 19:09:35;;;;;;;73.30;41.22;;;1.00;99.00;;;;;;6262834;22;20408;-94
2021/03/10 19:12:07;;;;;;;65.07;39.97;;;0.90;99.10;;;;;;6257806;22;20384;-95
2021/03/10 19:14:57;;;;;;;71.20;41.23;;;0.90;99.50;;;;;;6263983;22;20399;-93
2021/03/10 19:17:25;;;;;;;76.57;43.25;;;0.80;98.80;;;;;;6252756;22;20451;-95
2021/03/10 19:19:53;;;;;;;74.80;41.40;;;0.60;99.40;;;;;;6252023;22;20388;-96
2021/03/10 19:22:24;;;;;;;88.10;46.05;;;0.60;99.20;;;;;;6251536;22;20967;-94
2021/03/10 19:24:54;;;;;;;111.95;51.63;;;0.50;99.30;;;;;;6274758;22;20395;-96
2021/03/10 19:27:21;;;;;;;98.18;48.80;;;0.50;99.90;;;;;;6276807;22;20502;-94
2021/03/10 19:29:50;;;;;;;103.60;49.67;;;0.40;99.70;;;;;;6258317;22;20390;-96
2021/03/10 19:32:18;;;;;;;104.35;49.70;;;0.30;99.90;;;;;;6255624;22;20380;-95
2021/03/10 19:34:52;;;;;;;110.93;50.13;;;0.30;99.90;;;;;;6259831;22;20388;-96
2021/03/10 19:37:38;;;;;;;107.03;52.90;;;0.40;99.90;;;;;;6173369;23;20441;-96
2021/03/10 19:40:22;;;;;;;126.85;56.90;;;0.50;99.90;;;;;;6179058;23;20534;-96
2021/03/10 19:43:05;;;;;;;133.23;59.47;;;0.60;99.90;;;;;;6199585;23;20373;-96
2021/03/10 19:45:39;;;;;;;118.85;58.17;;;0.50;99.90;;;;;;6201847;23;20397;-96
2021/03/10 19:48:38;;;;;;;106.37;52.47;;;0.60;99.90;;;;;;6202494;23;20365;-96
2021/03/10 19:51:21;;;;;;;90.78;47.78;;;0.80;99.90;;;;;;6156421;23;20393;-96
2021/03/10 19:54:54;;;;;;;76.68;45.13;;;0.90;99.90;;;;;;6202646;23;20393;-94
2021/03/10 20:06:09;;;;;;;104.95;51.15;;;0.30;99.90;;;;;;6279206;22;21211;-94
2021/03/10 20:09:42;;;;;;;131.25;55.92;;;0.20;99.90;;;;;;6274555;22;20407;-94
2021/03/10 20:17:01;;;;;;;173.65;62.92;;;0.10;99.90;;;;;;6271995;22;20387;-96
2021/03/10 20:20:32;;;;;;;169.07;63.70;;;0.00;99.90;;;;;;6294444;22;20415;-94
2021/03/10 20:23:49;;;;;;;137.20;56.58;;;0.00;99.90;;;;;;6293061;22;20368;-95
2021/03/10 20:27:19;;;;;;;156.13;57.50;;;0.00;99.90;;;;;;6160904;23;20441;-96
2021/03/10 20:30:37;;;;;;;184.77;64.47;;;-0.10;99.90;;;;;;6271556;22;20404;-95
2021/03/10 20:33:27;;;;;;;171.57;60.30;;;-0.10;99.90;;;;;;6263936;22;20425;-94
2021/03/10 20:47:04;;;;;;;106.57;50.85;;;-0.10;99.90;;;;;;6285158;22;20392;-94
2021/03/10 20:50:32;;;;;;;159.43;64.10;;;-0.30;99.90;;;;;;6296181;22;20387;-96
2021/03/10 20:53:55;;;;;;;149.30;59.28;;;-0.50;99.90;;;;;;6200702;23;20420;-94
2021/03/10 20:57:50;;;;;;;131.10;55.20;;;-0.60;99.90;;;;;;6140981;23;20404;-94
2021/03/10 21:01:18;;;;;;;107.63;50.50;;;-0.80;99.90;;;;;;6140631;23;20376;-94
2021/03/10 21:08:41;;;;;;;244.48;71.03;;;-1.10;99.90;;;;;;6145577;23;20396;-94
2021/03/10 21:12:02;;;;;;;180.37;66.67;;;-0.70;99.90;;;;;;6025581;23;21396;-93
2021/03/10 21:15:27;;;;;;;492.83;76.88;;;-0.60;99.90;;;;;;5998141;23;20401;-92
2021/03/10 21:24:37;;;;;;;244.10;70.45;;;-0.90;99.90;;;;;;6281297;22;20490;-95
2021/03/10 21:27:20;;;;;;;189.38;62.80;;;-0.80;99.90;;;;;;6265075;22;20475;-96
